Time;durP1;ratioP1;P1;durP2;ratioP2;P2;SDS_P1;SDS_P2;PMS_P1;PMS_P2;Temp;Humidity;BMP_temperature;BMP_pressure;BME280_temperature;BME280_humidity;BME280_pressure;Samples;Min_cycle;Max_cycle;Signal;HPM_P1;HPM_P2
2023/05/26 00:00:09;;;;;;;11.40;8.85;;;20.00;96.70;;;;;;4983271;28;20539;-68
2023/05/26 00:02:39;;;;;;;9.60;7.65;;;20.00;96.70;;;;;;4980282;28;20048;-68
2023/05/26 00:05:08;;;;;;;8.23;6.85;;;19.80;96.70;;;;;;4976369;28;20047;-68
2023/05/26 00:07:39;;;;;;;10.77;6.30;;;19.60;96.70;;;;;;4978084;28;20058;-68
2023/05/26 00:10:09;;;;;;;8.43;6.43;;;19.40;96.70;;;;;;4979216;28;20092;-68
2023/05/26 00:12:37;;;;;;;9.70;6.85;;;19.40;96.70;;;;;;4964057;28;20416;-68
2023/05/26 00:15:09;;;;;;;8.48;7.05;;;19.50;96.70;;;;;;4978585;28;20567;-68
2023/05/26 00:17:38;;;;;;;11.75;7.32;;;19.60;96.70;;;;;;4981410;28;20121;-68
2023/05/26 00:32:39;;;;;;;8.32;6.40;;;19.60;96.70;;;;;;4954443;28;20610;-69
2023/05/26 00:35:09;;;;;;;11.15;6.00;;;19.60;96.70;;;;;;4960664;28;20034;-68
2023/05/26 00:37:38;;;;;;;8.98;6.75;;;19.60;96.70;;;;;;4979453;28;20042;-69
2023/05/26 00:40:07;;;;;;;8.45;6.40;;;19.50;96.70;;;;;;4983062;28;20562;-69
2023/05/26 00:42:36;;;;;;;7.18;6.32;;;19.60;96.70;;;;;;4962419;28;20061;-68
2023/05/26 00:45:05;;;;;;;8.70;6.43;;;19.60;96.70;;;;;;4980839;28;20061;-68
2023/05/26 00:47:33;;;;;;;8.38;5.72;;;19.60;96.70;;;;;;4962175;28;20635;-68
2023/05/26 00:50:03;;;;;;;10.35;5.78;;;19.60;96.70;;;;;;4961179;28;20051;-69
2023/05/26 00:52:33;;;;;;;6.20;5.47;;;19.60;96.70;;;;;;4979125;28;20775;-68
2023/05/26 00:55:02;;;;;;;5.95;4.80;;;19.60;96.70;;;;;;4960788;28;20052;-68
2023/05/26 01:06:26;;;;;;;5.50;4.75;;;19.40;96.70;;;;;;4979890;28;20101;-68
2023/05/26 01:08:57;;;;;;;8.80;5.43;;;19.30;96.70;;;;;;4979206;28;20136;-69
2023/05/26 02:14:47;;;;;;;7.93;4.55;;;18.80;96.70;;;;;;4953568;28;20057;-68
2023/05/26 02:17:17;;;;;;;6.78;4.05;;;18.70;96.70;;;;;;4979450;28;20075;-69
2023/05/26 02:19:45;;;;;;;5.82;3.92;;;18.80;96.70;;;;;;4957710;28;20137;-68
2023/05/26 02:22:13;;;;;;;5.20;3.85;;;18.80;96.70;;;;;;4951958;28;20046;-68
2023/05/26 02:49:42;;;;;;;7.13;4.30;;;18.50;96.70;;;;;;4958678;28;20049;-68
2023/05/26 02:52:11;;;;;;;4.90;4.35;;;18.50;96.70;;;;;;4961852;28;20145;-68
2023/05/26 02:54:40;;;;;;;5.68;4.15;;;18.40;96.70;;;;;;4959993;28;20058;-68
2023/05/26 02:57:08;;;;;;;6.47;4.68;;;18.40;96.70;;;;;;4976042;28;20137;-68
2023/05/26 02:59:36;;;;;;;7.82;4.53;;;18.40;96.70;;;;;;4942928;28;20491;-69
2023/05/26 03:02:05;;;;;;;7.28;4.30;;;18.30;96.70;;;;;;4961091;28;20121;-68
2023/05/26 03:04:33;;;;;;;8.43;4.70;;;18.40;96.70;;;;;;4956548;28;20054;-68
2023/05/26 03:28:10;;;;;;;9.38;4.18;;;18.20;96.70;;;;;;4968516;28;20577;-68
2023/05/26 03:30:39;;;;;;;6.13;3.97;;;18.30;96.70;;;;;;4957047;28;20046;-69
2023/05/26 03:33:08;;;;;;;4.72;3.47;;;18.30;96.70;;;;;;4956899;28;20553;-68
2023/05/26 03:35:37;;;;;;;6.35;3.83;;;18.30;96.70;;;;;;4973061;28;20137;-68
2023/05/26 03:38:05;;;;;;;5.38;3.42;;;18.20;96.70;;;;;;4959601;28;20073;-68
2023/05/26 03:44:48;;;;;;;8.48;3.78;;;18.10;96.70;;;;;;4978234;28;20522;-68
2023/05/26 03:47:17;;;;;;;4.45;3.63;;;18.10;96.70;;;;;;4944772;28;20049;-68
2023/05/26 03:49:46;;;;;;;5.90;4.18;;;18.10;96.70;;;;;;4975480;28;20584;-68
2023/05/26 03:52:15;;;;;;;5.45;3.60;;;18.00;96.70;;;;;;4960050;28;20077;-68
2023/05/26 04:37:43;;;;;;;6.28;3.83;;;18.10;96.70;;;;;;4951455;28;20137;-68
2023/05/26 04:40:13;;;;;;;5.70;4.13;;;18.10;96.70;;;;;;4941677;29;20145;-68
2023/05/26 04:42:43;;;;;;;6.00;4.03;;;18.20;96.70;;;;;;4940032;29;20617;-68
2023/05/26 04:45:11;;;;;;;7.18;3.85;;;18.10;96.70;;;;;;4941003;28;20586;-68
2023/05/26 04:47:44;;;;;;;5.95;4.05;;;18.20;96.70;;;;;;4934587;29;20095;-68
2023/05/26 04:50:16;;;;;;;4.88;3.60;;;18.30;96.70;;;;;;4939195;29;20148;-69
2023/05/26 04:52:45;;;;;;;5.65;3.60;;;18.30;96.70;;;;;;4925337;29;20054;-68
2023/05/26 04:55:14;;;;;;;6.00;3.38;;;18.30;96.70;;;;;;4939758;29;20093;-67
2023/05/26 04:57:43;;;;;;;5.72;3.50;;;18.30;96.70;;;;;;4940679;29;20090;-68
2023/05/26 05:00:14;;;;;;;4.75;3.40;;;18.20;96.70;;;;;;4937857;29;20069;-67
2023/05/26 05:02:46;;;;;;;4.30;3.53;;;18.30;96.70;;;;;;4924311;28;20075;-68
2023/05/26 05:05:40;;;;;;;6.40;3.60;;;18.20;96.70;;;;;;4939207;29;20535;-67
2023/05/26 05:08:09;;;;;;;6.47;3.83;;;18.40;96.70;;;;;;4922918;29;20055;-68
2023/05/26 05:10:39;;;;;;;6.78;4.50;;;18.30;96.70;;;;;;4938576;29;20047;-68
2023/05/26 05:13:08;;;;;;;7.55;4.45;;;18.30;96.70;;;;;;4938154;29;20055;-67
2023/05/26 05:15:36;;;;;;;7.07;4.78;;;18.30;96.70;;;;;;4938139;29;20047;-67
2023/05/26 05:18:05;;;;;;;7.63;4.53;;;18.30;96.70;;;;;;4936275;28;20735;-68
2023/05/26 05:20:34;;;;;;;7.32;4.95;;;18.30;96.70;;;;;;4939352;28;20050;-68
2023/05/26 05:23:03;;;;;;;7.50;4.53;;;18.30;96.70;;;;;;4922835;29;20058;-67
2023/05/26 05:25:31;;;;;;;8.23;4.43;;;18.40;96.70;;;;;;4938611;28;20569;-68
2023/05/26 05:28:00;;;;;;;10.68;5.80;;;18.50;96.70;;;;;;4938712;28;20135;-68
2023/05/26 05:30:28;;;;;;;9.88;5.32;;;18.50;96.70;;;;;;4937389;29;20688;-68
2023/05/26 05:32:56;;;;;;;6.43;5.28;;;18.50;96.70;;;;;;4940237;29;20051;-67
2023/05/26 05:35:25;;;;;;;10.13;5.63;;;18.50;96.70;;;;;;4939076;29;21164;-67
2023/05/26 05:37:58;;;;;;;7.32;5.43;;;18.60;96.70;;;;;;4942552;28;20047;-67
2023/05/26 05:40:28;;;;;;;10.52;6.47;;;18.60;96.70;;;;;;4978717;28;20046;-68
2023/05/26 05:42:56;;;;;;;11.32;6.60;;;18.70;96.70;;;;;;4961549;28;20046;-68
2023/05/26 05:45:26;;;;;;;9.32;7.55;;;18.70;96.70;;;;;;4957890;28;20055;-68
2023/05/26 05:48:15;;;;;;;14.35;7.72;;;18.70;96.70;;;;;;4957638;28;20047;-68
2023/05/26 05:50:56;;;;;;;12.05;7.35;;;18.70;96.70;;;;;;4980841;28;20100;-68
2023/05/26 05:53:24;;;;;;;14.98;7.75;;;18.90;96.70;;;;;;4958269;28;20145;-68
2023/05/26 05:55:53;;;;;;;14.27;9.25;;;18.90;96.70;;;;;;4979018;28;20074;-67
2023/05/26 05:58:21;;;;;;;14.60;8.50;;;19.00;96.70;;;;;;4957586;28;20065;-68
2023/05/26 06:00:52;;;;;;;11.65;7.88;;;19.00;96.70;;;;;;4960179;28;20066;-68
2023/05/26 06:03:20;;;;;;;13.80;8.95;;;19.00;96.70;;;;;;4960078;28;20046;-68
2023/05/26 06:05:48;;;;;;;13.63;8.80;;;19.10;96.70;;;;;;4978347;28;20121;-68
2023/05/26 06:08:16;;;;;;;13.13;8.02;;;19.20;96.70;;;;;;4958695;28;20133;-68
2023/05/26 06:10:44;;;;;;;11.18;7.10;;;19.10;96.70;;;;;;4978973;28;20061;-67
2023/05/26 06:13:12;;;;;;;10.60;7.53;;;19.10;96.70;;;;;;4961421;28;20054;-67
2023/05/26 06:15:41;;;;;;;11.20;8.05;;;19.20;96.70;;;;;;4960196;28;20038;-69
2023/05/26 06:18:10;;;;;;;13.15;8.30;;;19.30;96.70;;;;;;4975347;28;20061;-68
2023/05/26 06:20:38;;;;;;;10.48;7.63;;;19.40;96.70;;;;;;4958131;28;20047;-68
2023/05/26 06:23:06;;;;;;;11.80;8.18;;;19.40;96.70;;;;;;4945326;28;20575;-68
2023/05/26 06:25:34;;;;;;;11.45;7.68;;;19.50;96.70;;;;;;4960160;28;20054;-68
2023/05/26 06:28:04;;;;;;;13.52;8.15;;;19.60;96.70;;;;;;4956504;28;20049;-68
2023/05/26 06:30:32;;;;;;;9.85;7.22;;;19.60;96.70;;;;;;4959391;28;20205;-68
2023/05/26 06:33:24;;;;;;;11.98;7.25;;;19.70;96.70;;;;;;4974302;28;20065;-69
2023/05/26 06:35:52;;;;;;;11.63;8.20;;;19.70;96.70;;;;;;4981869;28;20487;-69
2023/05/26 06:38:20;;;;;;;10.88;7.15;;;19.80;96.70;;;;;;4964533;28;20528;-70
2023/05/26 06:40:49;;;;;;;14.07;7.85;;;19.90;96.70;;;;;;4949227;28;20050;-69
2023/05/26 06:43:18;;;;;;;11.77;7.22;;;19.90;96.70;;;;;;4964746;28;20074;-70
2023/05/26 06:45:47;;;;;;;14.27;7.45;;;20.00;96.70;;;;;;4963393;28;20053;-70
2023/05/26 06:48:15;;;;;;;9.25;7.15;;;20.00;96.70;;;;;;4964612;28;20580;-69
2023/05/26 06:50:54;;;;;;;11.45;7.45;;;20.10;96.70;;;;;;4963210;28;20043;-70
2023/05/26 06:53:22;;;;;;;12.38;7.63;;;20.20;96.70;;;;;;4963684;28;20409;-69
2023/05/26 06:55:50;;;;;;;13.30;7.38;;;20.20;96.70;;;;;;4956997;28;20038;-70
2023/05/26 06:58:18;;;;;;;9.88;7.57;;;20.30;96.70;;;;;;4981601;28;20865;-69
2023/05/26 07:00:57;;;;;;;12.23;8.00;;;20.30;96.70;;;;;;4958775;28;20613;-69
2023/05/26 07:03:28;;;;;;;9.63;6.85;;;20.40;96.70;;;;;;4961849;28;20053;-70
2023/05/26 07:06:00;;;;;;;11.32;7.60;;;20.50;96.70;;;;;;4965438;28;20052;-70
2023/05/26 07:08:30;;;;;;;11.77;8.05;;;20.50;96.70;;;;;;4964416;28;20053;-69
2023/05/26 07:11:21;;;;;;;12.75;8.35;;;20.60;96.70;;;;;;4959184;28;20113;-69
2023/05/26 07:13:53;;;;;;;11.00;8.15;;;20.60;96.70;;;;;;4964019;28;20476;-69
2023/05/26 07:16:23;;;;;;;11.93;7.93;;;20.70;96.70;;;;;;4965466;28;20145;-69
2023/05/26 07:18:51;;;;;;;11.18;8.05;;;20.80;96.70;;;;;;4957182;28;20393;-69
2023/05/26 07:21:22;;;;;;;10.82;7.78;;;20.90;96.70;;;;;;4961712;28;20058;-70
2023/05/26 07:23:50;;;;;;;11.45;8.23;;;21.00;96.70;;;;;;4982117;28;20461;-70
2023/05/26 07:26:20;;;;;;;9.90;7.68;;;21.10;96.70;;;;;;4964814;28;20145;-70
2023/05/26 07:28:51;;;;;;;12.32;8.07;;;21.10;96.70;;;;;;4965796;28;20054;-70
2023/05/26 07:31:25;;;;;;;13.07;8.70;;;21.10;96.70;;;;;;4964081;28;20046;-71
2023/05/26 07:33:56;;;;;;;12.90;8.43;;;21.20;96.70;;;;;;4966845;28;20382;-70
2023/05/26 07:36:26;;;;;;;8.70;7.72;;;21.20;96.70;;;;;;4985165;28;20041;-69
2023/05/26 07:38:55;;;;;;;11.63;7.95;;;21.30;96.70;;;;;;4968181;28;20050;-70
2023/05/26 07:41:23;;;;;;;10.20;7.68;;;21.30;96.70;;;;;;4985420;28;20042;-70
2023/05/26 07:43:51;;;;;;;8.88;7.47;;;21.40;96.70;;;;;;4986795;28;20455;-69
2023/05/26 07:46:20;;;;;;;10.27;7.95;;;21.40;96.70;;;;;;4983443;28;20035;-69
2023/05/26 07:48:50;;;;;;;11.55;7.85;;;21.50;96.70;;;;;;4964184;28;20128;-70
2023/05/26 07:51:18;;;;;;;8.15;7.20;;;21.70;96.70;;;;;;4985979;28;20042;-70
2023/05/26 07:53:48;;;;;;;8.80;7.30;;;21.70;96.70;;;;;;4985322;28;20127;-70
2023/05/26 07:56:16;;;;;;;8.85;7.00;;;21.80;96.70;;;;;;4980525;28;20132;-70
2023/05/26 07:58:43;;;;;;;8.60;6.72;;;21.70;96.70;;;;;;4986306;28;20049;-70
2023/05/26 08:01:12;;;;;;;7.25;6.55;;;21.80;96.70;;;;;;4968578;28;20073;-70
2023/05/26 08:03:40;;;;;;;7.28;5.82;;;21.80;96.70;;;;;;4985773;28;20066;-70
2023/05/26 08:06:08;;;;;;;7.07;6.15;;;21.90;96.70;;;;;;4985828;28;20525;-71
2023/05/26 08:08:54;;;;;;;8.27;6.00;;;22.00;96.70;;;;;;4964307;28;20460;-70
2023/05/26 08:11:23;;;;;;;7.20;5.60;;;22.20;96.70;;;;;;4985425;28;20570;-71
2023/05/26 08:13:51;;;;;;;7.15;5.80;;;22.30;96.70;;;;;;4967482;28;20069;-71
2023/05/26 08:16:19;;;;;;;6.32;5.30;;;22.40;96.70;;;;;;4967937;28;20049;-71
2023/05/26 08:18:47;;;;;;;6.32;5.25;;;22.50;96.70;;;;;;4985002;28;20074;-70
2023/05/26 08:21:15;;;;;;;7.43;5.25;;;22.60;96.70;;;;;;4962094;28;21270;-70
2023/05/26 08:23:43;;;;;;;5.80;5.30;;;22.50;96.70;;;;;;4967030;28;20050;-70
2023/05/26 08:26:12;;;;;;;5.35;4.85;;;22.60;96.70;;;;;;4985482;28;20046;-71
2023/05/26 08:28:40;;;;;;;5.65;5.15;;;22.60;96.70;;;;;;4983858;28;20071;-71
2023/05/26 08:31:08;;;;;;;6.38;5.28;;;22.70;96.70;;;;;;4963723;28;20046;-71
2023/05/26 08:33:37;;;;;;;8.77;4.88;;;22.60;96.70;;;;;;4985061;28;20046;-71
2023/05/26 08:36:05;;;;;;;5.53;4.95;;;22.60;96.70;;;;;;4984619;28;20039;-71
2023/05/26 08:38:34;;;;;;;8.60;4.97;;;22.80;96.70;;;;;;4984785;28;20057;-70
2023/05/26 08:41:05;;;;;;;7.10;5.30;;;22.80;96.70;;;;;;4983856;28;20104;-70
2023/05/26 08:43:43;;;;;;;8.10;4.97;;;23.00;96.70;;;;;;4950103;28;20448;-70
2023/05/26 08:46:21;;;;;;;7.32;4.68;;;23.10;96.70;;;;;;4981796;28;20464;-71
2023/05/26 08:48:51;;;;;;;5.82;4.88;;;23.20;96.70;;;;;;4959612;28;20065;-70
2023/05/26 08:51:19;;;;;;;5.25;4.75;;;23.40;96.70;;;;;;4983849;28;20046;-71
2023/05/26 08:53:49;;;;;;;7.85;5.15;;;23.30;96.70;;;;;;4983959;28;20177;-70
2023/05/26 08:56:18;;;;;;;7.80;4.82;;;23.40;96.70;;;;;;4984042;28;20093;-71
2023/05/26 08:58:51;;;;;;;7.68;4.50;;;23.40;96.70;;;;;;4983263;28;20054;-70
2023/05/26 09:01:20;;;;;;;6.50;4.43;;;23.60;96.70;;;;;;4979653;28;20125;-70
2023/05/26 09:03:48;;;;;;;6.38;4.53;;;23.70;96.70;;;;;;4965961;28;20046;-70
2023/05/26 09:06:17;;;;;;;6.15;4.68;;;23.80;96.70;;;;;;4982632;28;20412;-70
2023/05/26 09:08:45;;;;;;;5.55;4.70;;;23.90;96.70;;;;;;4984877;28;20050;-70
2023/05/26 09:11:22;;;;;;;6.75;4.57;;;24.00;96.70;;;;;;4984901;28;20432;-70
2023/05/26 09:13:55;;;;;;;;;;;24.10;96.70;;;;;;4965494;28;20052;-70
2023/05/26 09:16:24;;;;;;;4.45;4.05;;;24.10;96.70;;;;;;4980771;28;20421;-70
2023/05/26 09:18:57;;;;;;;7.47;3.97;;;24.20;96.70;;;;;;4981420;28;20125;-70
2023/05/26 09:21:26;;;;;;;7.07;4.57;;;24.40;96.70;;;;;;4964550;28;20050;-70
2023/05/26 09:23:56;;;;;;;5.28;4.22;;;24.30;96.70;;;;;;4966160;28;20124;-70
2023/05/26 09:26:29;;;;;;;4.60;3.92;;;24.50;96.70;;;;;;4956668;28;20145;-70
2023/05/26 09:28:59;;;;;;;5.35;4.20;;;24.70;96.70;;;;;;4965760;28;20593;-70
2023/05/26 09:31:38;;;;;;;6.00;4.10;;;24.80;96.70;;;;;;4959465;28;20051;-70
2023/05/26 09:34:07;;;;;;;4.75;4.35;;;24.80;96.70;;;;;;4981362;28;20050;-70
2023/05/26 09:36:36;;;;;;;5.43;4.07;;;24.90;96.70;;;;;;4983662;28;20048;-70
2023/05/26 09:39:07;;;;;;;8.38;4.32;;;25.00;96.70;;;;;;4982632;28;20137;-70
2023/05/26 09:41:36;;;;;;;5.00;3.97;;;25.00;96.70;;;;;;4984477;28;20528;-70
2023/05/26 09:44:11;;;;;;;4.65;4.13;;;25.10;96.70;;;;;;4984522;28;20046;-70
2023/05/26 09:46:40;;;;;;;4.30;3.90;;;25.20;96.70;;;;;;4967377;28;20046;-71
2023/05/26 09:49:12;;;;;;;5.60;3.97;;;25.40;96.70;;;;;;4983456;28;20150;-70
2023/05/26 09:51:41;;;;;;;7.78;4.20;;;25.50;96.70;;;;;;4983183;28;20054;-70
2023/05/26 09:54:13;;;;;;;7.45;4.22;;;25.50;96.70;;;;;;4979492;28;20126;-70
2023/05/26 09:56:50;;;;;;;4.35;3.95;;;25.50;96.70;;;;;;4984238;28;20125;-71
2023/05/26 09:59:23;;;;;;;5.07;4.00;;;25.70;96.70;;;;;;4982827;28;20046;-70
2023/05/26 10:01:53;;;;;;;7.45;3.92;;;25.70;96.70;;;;;;4982830;28;20073;-71
2023/05/26 10:04:21;;;;;;;6.40;4.47;;;25.80;96.70;;;;;;4984279;28;20077;-70
2023/05/26 10:06:51;;;;;;;5.47;4.28;;;25.90;96.70;;;;;;4979156;28;20141;-70
2023/05/26 10:09:23;;;;;;;5.53;4.72;;;26.10;96.70;;;;;;4981000;28;20041;-70
2023/05/26 10:11:54;;;;;;;5.40;3.58;;;26.10;96.70;;;;;;4982780;28;20120;-70
2023/05/26 10:14:24;;;;;;;7.07;3.97;;;26.00;96.70;;;;;;4962690;28;20058;-70
2023/05/26 10:16:53;;;;;;;5.55;4.05;;;26.00;96.70;;;;;;4978156;28;20075;-71
2023/05/26 10:19:22;;;;;;;5.95;4.25;;;26.10;96.70;;;;;;4983247;28;20046;-71
2023/05/26 10:22:01;;;;;;;4.38;3.38;;;26.30;96.70;;;;;;4982647;28;20034;-70
2023/05/26 10:24:35;;;;;;;6.88;3.60;;;26.60;96.70;;;;;;4981976;28;20050;-70
2023/05/26 10:27:09;;;;;;;7.00;3.50;;;26.70;96.70;;;;;;4965514;28;20154;-70
2023/05/26 10:29:47;;;;;;;4.07;3.42;;;26.80;96.70;;;;;;4983052;28;20046;-70
2023/05/26 10:32:44;;;;;;;5.15;3.60;;;27.00;96.70;;;;;;4982346;28;20046;-70
2023/05/26 10:35:24;;;;;;;4.60;3.40;;;27.20;96.70;;;;;;4979365;28;20160;-70
2023/05/26 10:38:11;;;;;;;4.90;3.47;;;27.30;96.70;;;;;;4964415;28;20042;-70
2023/05/26 10:40:42;;;;;;;3.60;2.53;;;27.40;96.70;;;;;;4960037;28;20508;-70
2023/05/26 10:43:18;;;;;;;4.10;2.80;;;27.50;96.70;;;;;;4982917;28;20046;-70
2023/05/26 10:45:55;;;;;;;6.03;3.30;;;27.60;96.70;;;;;;4949448;28;20073;-70
2023/05/26 10:48:26;;;;;;;6.38;3.50;;;27.70;96.70;;;;;;4982380;28;20058;-70
2023/05/26 10:51:15;;;;;;;4.82;3.17;;;27.70;96.70;;;;;;4964077;28;20057;-70
2023/05/26 10:53:45;;;;;;;4.15;2.90;;;27.60;96.70;;;;;;4963211;28;20424;-70
2023/05/26 10:56:14;;;;;;;3.65;3.10;;;27.50;96.70;;;;;;4983227;28;20156;-70
2023/05/26 10:58:47;;;;;;;4.55;2.50;;;27.60;96.70;;;;;;4964489;28;20054;-70
2023/05/26 11:01:22;;;;;;;2.85;2.35;;;27.80;96.70;;;;;;4982758;28;20575;-71
2023/05/26 11:03:56;;;;;;;5.37;2.23;;;27.90;96.70;;;;;;4956978;28;20039;-71
2023/05/26 11:06:41;;;;;;;4.00;2.15;;;27.80;96.70;;;;;;4979630;28;20102;-70
2023/05/26 11:09:10;;;;;;;4.05;2.17;;;27.80;96.70;;;;;;4961509;28;20043;-70
2023/05/26 11:11:49;;;;;;;3.45;2.33;;;27.90;96.70;;;;;;4982028;28;20048;-70
2023/05/26 11:14:23;;;;;;;5.22;2.28;;;28.10;96.70;;;;;;4965573;28;20081;-71
2023/05/26 11:16:56;;;;;;;2.13;1.77;;;28.30;96.70;;;;;;4976420;28;20054;-70
2023/05/26 11:19:31;;;;;;;2.90;2.25;;;28.50;96.70;;;;;;4982312;28;20046;-71
2023/05/26 11:21:59;;;;;;;3.00;2.30;;;28.70;96.70;;;;;;4962314;28;20100;-70
2023/05/26 11:24:28;;;;;;;3.00;2.30;;;28.70;96.70;;;;;;4964576;28;20042;-70
2023/05/26 11:26:58;;;;;;;2.78;2.50;;;28.30;96.70;;;;;;4981916;28;20449;-70
2023/05/26 11:29:26;;;;;;;2.95;2.45;;;28.10;96.70;;;;;;4981316;28;21204;-70
2023/05/26 11:31:56;;;;;;;4.57;3.17;;;28.20;96.70;;;;;;4982415;28;20038;-70
2023/05/26 11:34:26;;;;;;;3.90;2.80;;;28.30;96.70;;;;;;4983162;28;20046;-70
2023/05/26 11:36:54;;;;;;;4.85;2.92;;;28.40;96.70;;;;;;4948468;28;20047;-70
2023/05/26 11:39:23;;;;;;;2.85;2.60;;;28.20;96.70;;;;;;4982683;28;20062;-70
2023/05/26 11:41:51;;;;;;;3.75;2.90;;;28.50;96.70;;;;;;4977653;28;20043;-70
2023/05/26 11:44:19;;;;;;;4.38;2.60;;;28.50;96.70;;;;;;4964113;28;20054;-70
2023/05/26 11:46:47;;;;;;;4.03;2.83;;;28.60;96.70;;;;;;4982423;28;20038;-71
2023/05/26 11:49:18;;;;;;;5.22;2.70;;;28.90;96.70;;;;;;4957185;28;20042;-70
2023/05/26 11:51:47;;;;;;;2.90;2.55;;;29.00;96.70;;;;;;4964367;28;20047;-70
2023/05/26 11:54:16;;;;;;;4.15;2.90;;;29.00;96.70;;;;;;4963680;28;20097;-70
2023/05/26 11:56:45;;;;;;;7.13;2.80;;;29.20;96.70;;;;;;4958563;28;20057;-70
2023/05/26 11:59:17;;;;;;;5.03;3.05;;;29.50;96.70;;;;;;4982302;28;20039;-71
2023/05/26 12:01:46;;;;;;;3.30;2.95;;;29.60;96.70;;;;;;4981927;28;20050;-71
2023/05/26 12:04:25;;;;;;;4.78;2.85;;;29.70;96.70;;;;;;4981489;28;20057;-71
2023/05/26 12:06:54;;;;;;;3.85;3.17;;;29.80;96.70;;;;;;4960046;28;20070;-70
2023/05/26 12:09:23;;;;;;;3.22;2.85;;;29.60;96.70;;;;;;4964939;28;20046;-70
2023/05/26 12:11:52;;;;;;;4.68;3.53;;;29.60;96.70;;;;;;4962507;28;20747;-70
2023/05/26 12:14:22;;;;;;;3.85;2.92;;;29.80;96.70;;;;;;4978172;28;20101;-68
2023/05/26 12:16:54;;;;;;;3.15;2.85;;;29.80;96.70;;;;;;4984332;28;20061;-70
2023/05/26 12:19:26;;;;;;;4.65;2.83;;;29.90;96.70;;;;;;4968373;28;20180;-70
2023/05/26 12:22:00;;;;;;;4.28;3.10;;;30.00;96.70;;;;;;4985401;28;20096;-70
2023/05/26 12:24:33;;;;;;;3.75;2.60;;;30.20;96.70;;;;;;4966621;28;20052;-70
2023/05/26 12:27:08;;;;;;;3.38;2.63;;;30.10;96.70;;;;;;4984312;28;20058;-71
2023/05/26 12:29:37;;;;;;;3.90;2.65;;;30.10;96.70;;;;;;4967000;28;20415;-70
2023/05/26 12:32:06;;;;;;;3.35;2.80;;;30.40;96.70;;;;;;4985206;28;20149;-71
2023/05/26 12:34:41;;;;;;;3.83;2.90;;;30.70;96.70;;;;;;4964687;28;20045;-71
2023/05/26 12:37:10;;;;;;;3.10;2.80;;;30.70;96.70;;;;;;4963995;28;20058;-71
2023/05/26 12:39:38;;;;;;;5.00;3.08;;;30.70;96.70;;;;;;4967688;28;20057;-71
2023/05/26 12:42:07;;;;;;;4.53;3.20;;;30.80;96.70;;;;;;4966994;28;20535;-71
2023/05/26 12:44:35;;;;;;;5.72;3.17;;;30.60;96.70;;;;;;4985078;28;20038;-71
2023/05/26 12:47:04;;;;;;;3.38;2.60;;;30.60;96.70;;;;;;4964201;28;20046;-71
2023/05/26 12:49:33;;;;;;;3.58;2.50;;;30.90;96.70;;;;;;4982916;28;20141;-71
2023/05/26 12:52:03;;;;;;;7.13;3.20;;;31.00;96.70;;;;;;4983856;28;20440;-71
2023/05/26 12:54:31;;;;;;;5.70;2.90;;;31.00;96.70;;;;;;4985009;28;20050;-71
2023/05/26 12:57:04;;;;;;;3.72;3.15;;;31.00;96.70;;;;;;4966672;28;20126;-70
2023/05/26 12:59:33;;;;;;;4.50;3.03;;;30.70;96.70;;;;;;4950654;28;20056;-71
2023/05/26 13:02:02;;;;;;;4.97;3.05;;;30.90;96.70;;;;;;4983176;28;20373;-71
2023/05/26 13:04:31;;;;;;;4.38;3.08;;;30.90;96.70;;;;;;4983572;28;20552;-70
2023/05/26 13:07:00;;;;;;;4.30;2.88;;;31.00;96.70;;;;;;4964556;28;20049;-71
2023/05/26 13:09:30;;;;;;;5.57;2.72;;;31.10;96.70;;;;;;4967602;28;20054;-70
2023/05/26 13:11:59;;;;;;;4.53;2.70;;;31.20;96.70;;;;;;4967129;28;20096;-71
2023/05/26 13:14:28;;;;;;;3.70;2.70;;;31.50;96.70;;;;;;4983768;28;20046;-71
2023/05/26 13:16:56;;;;;;;3.00;2.70;;;31.50;96.70;;;;;;4965777;28;20042;-70
2023/05/26 13:19:25;;;;;;;3.78;3.17;;;31.70;96.70;;;;;;4964875;28;20463;-71
2023/05/26 13:21:54;;;;;;;4.60;2.70;;;32.00;96.70;;;;;;4964713;28;20088;-71
2023/05/26 13:24:23;;;;;;;4.05;2.97;;;32.20;96.70;;;;;;4983895;28;20535;-71
2023/05/26 13:26:53;;;;;;;4.10;3.03;;;32.40;96.70;;;;;;4956993;28;20112;-71
2023/05/26 13:29:22;;;;;;;4.18;2.90;;;32.40;96.70;;;;;;4983247;28;20054;-71
2023/05/26 13:31:50;;;;;;;4.05;2.70;;;32.40;96.70;;;;;;4984164;28;20043;-71
2023/05/26 13:34:19;;;;;;;3.45;2.80;;;32.40;96.70;;;;;;4984144;28;20451;-70
2023/05/26 13:36:47;;;;;;;4.18;2.88;;;32.30;96.70;;;;;;4964294;28;20502;-70
2023/05/26 13:39:16;;;;;;;4.03;2.60;;;32.40;96.70;;;;;;4983854;28;20085;-70
2023/05/26 13:41:44;;;;;;;4.28;2.75;;;32.60;96.70;;;;;;4984992;28;20470;-70
2023/05/26 13:44:17;;;;;;;5.93;2.70;;;32.70;96.70;;;;;;4983700;28;20062;-70
2023/05/26 13:46:45;;;;;;;3.40;2.60;;;32.80;96.70;;;;;;4966376;28;20074;-70
2023/05/26 13:49:14;;;;;;;3.80;2.72;;;33.10;96.70;;;;;;4967744;28;20046;-70
2023/05/26 13:51:42;;;;;;;4.32;2.55;;;33.20;96.70;;;;;;4983536;28;20038;-70
2023/05/26 13:54:11;;;;;;;3.67;3.00;;;33.40;96.70;;;;;;4983843;28;20097;-70
2023/05/26 13:56:40;;;;;;;4.00;2.78;;;33.60;96.70;;;;;;4959671;28;20050;-70
2023/05/26 13:59:08;;;;;;;2.78;2.53;;;33.60;96.70;;;;;;4983519;28;20097;-70
2023/05/26 14:01:38;;;;;;;4.35;2.83;;;33.50;96.70;;;;;;4960573;28;20068;-70
2023/05/26 14:04:07;;;;;;;5.45;3.35;;;33.70;96.70;;;;;;4983294;28;20042;-70
2023/05/26 14:06:39;;;;;;;5.50;2.83;;;33.60;96.70;;;;;;4981715;28;20055;-69
2023/05/26 14:09:10;;;;;;;7.47;2.72;;;33.70;96.70;;;;;;4983934;28;20057;-70
2023/05/26 14:11:42;;;;;;;7.63;2.88;;;33.70;96.70;;;;;;4984399;28;20046;-69
2023/05/26 14:14:11;;;;;;;3.30;2.97;;;33.70;96.70;;;;;;4982487;28;20125;-70
2023/05/26 14:16:42;;;;;;;6.03;2.78;;;33.80;96.70;;;;;;4982634;28;20054;-70
2023/05/26 14:19:11;;;;;;;4.68;2.50;;;34.20;96.70;;;;;;4982418;28;20054;-70
2023/05/26 14:21:50;;;;;;;3.38;2.10;;;34.40;96.70;;;;;;4982584;28;20053;-68
2023/05/26 14:24:41;;;;;;;3.25;2.95;;;34.30;96.70;;;;;;4983499;28;20042;-70
2023/05/26 14:27:12;;;;;;;2.80;2.50;;;34.40;96.70;;;;;;4982172;28;20100;-67
2023/05/26 14:29:41;;;;;;;4.43;3.03;;;34.80;96.70;;;;;;4958933;28;20121;-67
2023/05/26 14:32:11;;;;;;;4.18;2.97;;;35.10;96.70;;;;;;4958144;28;20054;-67
2023/05/26 14:34:40;;;;;;;4.90;3.28;;;35.30;96.70;;;;;;4973348;28;20052;-67
2023/05/26 14:37:09;;;;;;;5.60;3.25;;;35.10;96.70;;;;;;4977606;28;20057;-67
2023/05/26 14:39:38;;;;;;;3.85;3.03;;;34.30;96.70;;;;;;4964166;28;20058;-68
2023/05/26 14:42:08;;;;;;;8.32;3.28;;;34.30;96.70;;;;;;4976821;28;20124;-70
2023/05/26 14:44:36;;;;;;;4.22;3.03;;;34.00;96.70;;;;;;4965240;28;20451;-68
2023/05/26 14:47:06;;;;;;;7.03;3.40;;;34.00;96.70;;;;;;4982962;28;20078;-69
2023/05/26 14:49:39;;;;;;;6.45;3.47;;;33.80;96.70;;;;;;4982184;28;20053;-68
2023/05/26 14:52:08;;;;;;;5.10;2.92;;;33.80;96.70;;;;;;4964016;28;20112;-68
2023/05/26 14:54:37;;;;;;;5.05;3.05;;;33.70;96.70;;;;;;4982868;28;20239;-69
2023/05/26 14:57:06;;;;;;;5.68;3.25;;;34.00;96.70;;;;;;4965131;28;20470;-68
2023/05/26 14:59:34;;;;;;;7.10;3.40;;;34.20;96.70;;;;;;4958706;28;20042;-68
2023/05/26 15:02:04;;;;;;;6.57;3.58;;;34.40;96.70;;;;;;4956712;28;20047;-69
2023/05/26 15:04:33;;;;;;;7.00;2.95;;;34.20;96.70;;;;;;4964463;28;20419;-69
2023/05/26 15:07:03;;;;;;;4.53;3.05;;;34.20;96.70;;;;;;4968636;28;20046;-72
2023/05/26 15:09:32;;;;;;;5.65;2.95;;;34.30;96.70;;;;;;4983363;28;20465;-69
2023/05/26 15:12:00;;;;;;;6.72;2.90;;;34.50;96.70;;;;;;4983028;28;20568;-69
2023/05/26 15:14:29;;;;;;;3.25;2.97;;;34.50;96.70;;;;;;4981742;28;20416;-69
2023/05/26 15:16:58;;;;;;;3.40;3.10;;;34.30;96.70;;;;;;4960865;28;20873;-70
2023/05/26 15:19:27;;;;;;;4.22;2.78;;;34.00;96.70;;;;;;4982988;28;20050;-70
2023/05/26 15:21:55;;;;;;;5.97;3.15;;;34.10;96.70;;;;;;4982966;28;20070;-70
2023/05/26 15:24:30;;;;;;;5.97;2.92;;;33.90;96.70;;;;;;4983443;28;20563;-70
2023/05/26 15:26:58;;;;;;;5.90;3.15;;;34.00;96.70;;;;;;4982739;28;20046;-69
2023/05/26 15:29:27;;;;;;;4.57;3.10;;;34.10;96.70;;;;;;4982892;28;20043;-70
2023/05/26 15:31:56;;;;;;;3.92;3.20;;;34.30;96.70;;;;;;4982409;28;20057;-70
2023/05/26 15:34:25;;;;;;;8.55;2.97;;;34.00;96.70;;;;;;4982782;28;20408;-71
2023/05/26 15:36:54;;;;;;;4.78;3.00;;;34.20;96.70;;;;;;4981943;28;20512;-71
2023/05/26 15:39:22;;;;;;;4.00;2.83;;;33.90;96.70;;;;;;4944908;28;20090;-69
2023/05/26 15:41:53;;;;;;;4.68;3.03;;;34.10;96.70;;;;;;4959896;28;20497;-70
2023/05/26 15:44:21;;;;;;;3.97;2.92;;;34.00;96.70;;;;;;4960621;28;20077;-69
2023/05/26 15:46:50;;;;;;;8.65;2.97;;;33.80;96.70;;;;;;4961750;28;20071;-71
2023/05/26 15:49:26;;;;;;;3.63;2.63;;;33.70;96.70;;;;;;4964685;28;20050;-71
2023/05/26 15:51:55;;;;;;;6.82;3.00;;;33.90;96.70;;;;;;4965001;28;20091;-71
2023/05/26 15:54:25;;;;;;;8.20;3.22;;;34.00;96.70;;;;;;4964681;28;20157;-71
2023/05/26 15:56:55;;;;;;;5.68;2.83;;;34.10;96.70;;;;;;4964274;28;20055;-71
2023/05/26 15:59:28;;;;;;;4.85;2.78;;;34.10;96.70;;;;;;4965460;28;20146;-71